sensor_id;sensor_type;location;lat;lon;timestamp;P1;durP1;ratioP1;P2;durP2;ratioP2
23800;SDS011;12081;48.614;10.226;2023-07-30T02:37:54;8.73;;;1.67;;
23800;SDS011;12081;48.614;10.226;2023-07-30T05:32:21;3.77;;;2.40;;
23800;SDS011;12081;48.614;10.226;2023-07-30T05:35:05;5.07;;;3.40;;
23800;SDS011;12081;48.614;10.226;2023-07-30T05:37:49;3.00;;;2.70;;
23800;SDS011;12081;48.614;10.226;2023-07-30T05:40:34;4.67;;;2.77;;
23800;SDS011;12081;48.614;10.226;2023-07-30T05:43:19;5.90;;;2.70;;
23800;SDS011;12081;48.614;10.226;2023-07-30T05:46:03;6.57;;;3.13;;
23800;SDS011;12081;48.614;10.226;2023-07-30T05:48:47;4.70;;;3.20;;
23800;SDS011;12081;48.614;10.226;2023-07-30T05:51:31;6.10;;;3.20;;
23800;SDS011;12081;48.614;10.226;2023-07-30T05:54:16;6.07;;;3.30;;
23800;SDS011;12081;48.614;10.226;2023-07-30T05:57:01;3.93;;;2.80;;
23800;SDS011;12081;48.614;10.226;2023-07-30T05:59:45;4.07;;;3.17;;
23800;SDS011;12081;48.614;10.226;2023-07-30T06:02:29;3.83;;;2.90;;
23800;SDS011;12081;48.614;10.226;2023-07-30T06:05:13;5.73;;;2.63;;
23800;SDS011;12081;48.614;10.226;2023-07-30T06:07:57;3.97;;;2.60;;
23800;SDS011;12081;48.614;10.226;2023-07-30T06:10:43;6.13;;;2.87;;
23800;SDS011;12081;48.614;10.226;2023-07-30T06:13:28;5.63;;;2.70;;
23800;SDS011;12081;48.614;10.226;2023-07-30T06:16:13;3.63;;;2.57;;
23800;SDS011;12081;48.614;10.226;2023-07-30T06:18:58;5.67;;;2.53;;
23800;SDS011;12081;48.614;10.226;2023-07-30T06:21:42;6.13;;;2.90;;
23800;SDS011;12081;48.614;10.226;2023-07-30T06:24:26;3.37;;;2.80;;
23800;SDS011;12081;48.614;10.226;2023-07-30T06:27:10;6.90;;;2.80;;
23800;SDS011;12081;48.614;10.226;2023-07-30T06:29:56;4.30;;;2.17;;
23800;SDS011;12081;48.614;10.226;2023-07-30T06:32:40;2.13;;;2.00;;
23800;SDS011;12081;48.614;10.226;2023-07-30T06:35:24;2.70;;;2.30;;
23800;SDS011;12081;48.614;10.226;2023-07-30T06:38:08;5.53;;;2.10;;
23800;SDS011;12081;48.614;10.226;2023-07-30T06:40:52;6.03;;;2.37;;
23800;SDS011;12081;48.614;10.226;2023-07-30T06:43:36;5.40;;;2.47;;
23800;SDS011;12081;48.614;10.226;2023-07-30T06:46:20;2.87;;;2.30;;
23800;SDS011;12081;48.614;10.226;2023-07-30T06:49:04;3.77;;;2.10;;
23800;SDS011;12081;48.614;10.226;2023-07-30T06:51:49;4.97;;;2.40;;
23800;SDS011;12081;48.614;10.226;2023-07-30T06:54:33;4.23;;;2.47;;
23800;SDS011;12081;48.614;10.226;2023-07-30T06:57:17;3.10;;;2.40;;
23800;SDS011;12081;48.614;10.226;2023-07-30T07:00:01;3.70;;;2.47;;
23800;SDS011;12081;48.614;10.226;2023-07-30T07:02:49;3.00;;;2.07;;
23800;SDS011;12081;48.614;10.226;2023-07-30T07:05:34;3.93;;;2.37;;
23800;SDS011;12081;48.614;10.226;2023-07-30T07:08:18;3.03;;;2.60;;
23800;SDS011;12081;48.614;10.226;2023-07-30T07:11:02;2.83;;;2.57;;
23800;SDS011;12081;48.614;10.226;2023-07-30T07:13:46;2.60;;;2.10;;
23800;SDS011;12081;48.614;10.226;2023-07-30T07:16:30;3.87;;;2.50;;
23800;SDS011;12081;48.614;10.226;2023-07-30T07:19:14;2.33;;;2.13;;
23800;SDS011;12081;48.614;10.226;2023-07-30T07:21:58;3.87;;;2.50;;
23800;SDS011;12081;48.614;10.226;2023-07-30T07:24:42;2.57;;;2.37;;
23800;SDS011;12081;48.614;10.226;2023-07-30T07:27:26;3.20;;;2.27;;
23800;SDS011;12081;48.614;10.226;2023-07-30T07:30:11;3.93;;;2.80;;
23800;SDS011;12081;48.614;10.226;2023-07-30T07:32:55;3.40;;;2.30;;
23800;SDS011;12081;48.614;10.226;2023-07-30T07:35:39;3.17;;;2.70;;
23800;SDS011;12081;48.614;10.226;2023-07-30T07:38:24;4.40;;;2.80;;
23800;SDS011;12081;48.614;10.226;2023-07-30T07:41:13;3.43;;;2.87;;
23800;SDS011;12081;48.614;10.226;2023-07-30T07:43:59;2.67;;;2.43;;
23800;SDS011;12081;48.614;10.226;2023-07-30T07:46:43;3.00;;;2.70;;
23800;SDS011;12081;48.614;10.226;2023-07-30T07:49:27;3.53;;;2.77;;
23800;SDS011;12081;48.614;10.226;2023-07-30T07:52:11;3.00;;;2.60;;
23800;SDS011;12081;48.614;10.226;2023-07-30T07:54:55;7.67;;;2.57;;
23800;SDS011;12081;48.614;10.226;2023-07-30T07:57:40;2.90;;;2.50;;
23800;SDS011;12081;48.614;10.226;2023-07-30T08:00:24;3.10;;;2.30;;
23800;SDS011;12081;48.614;10.226;2023-07-30T08:03:08;4.40;;;2.70;;
23800;SDS011;12081;48.614;10.226;2023-07-30T08:05:53;2.67;;;2.27;;
23800;SDS011;12081;48.614;10.226;2023-07-30T08:08:37;4.20;;;2.10;;
23800;SDS011;12081;48.614;10.226;2023-07-30T08:11:21;3.30;;;2.30;;
23800;SDS011;12081;48.614;10.226;2023-07-30T08:14:05;4.60;;;2.30;;
23800;SDS011;12081;48.614;10.226;2023-07-30T08:16:49;3.43;;;2.17;;
23800;SDS011;12081;48.614;10.226;2023-07-30T08:19:33;3.40;;;1.90;;
23800;SDS011;12081;48.614;10.226;2023-07-30T08:22:17;4.40;;;1.98;;
23800;SDS011;12081;48.614;10.226;2023-07-30T08:25:01;1.80;;;1.63;;
23800;SDS011;12081;48.614;10.226;2023-07-30T08:27:46;10.93;;;2.47;;
23800;SDS011;12081;48.614;10.226;2023-07-30T08:30:30;2.10;;;1.90;;
23800;SDS011;12081;48.614;10.226;2023-07-30T08:33:14;1.40;;;1.30;;
23800;SDS011;12081;48.614;10.226;2023-07-30T08:35:58;2.60;;;1.33;;
23800;SDS011;12081;48.614;10.226;2023-07-30T08:38:43;1.25;;;1.10;;
23800;SDS011;12081;48.614;10.226;2023-07-30T08:41:27;1.55;;;1.38;;
23800;SDS011;12081;48.614;10.226;2023-07-30T08:44:11;2.70;;;1.40;;
23800;SDS011;12081;48.614;10.226;2023-07-30T08:46:56;1.38;;;1.27;;
23800;SDS011;12081;48.614;10.226;2023-07-30T08:49:40;1.65;;;1.23;;
23800;SDS011;12081;48.614;10.226;2023-07-30T08:52:24;1.55;;;1.17;;
23800;SDS011;12081;48.614;10.226;2023-07-30T08:55:10;1.70;;;1.40;;
23800;SDS011;12081;48.614;10.226;2023-07-30T08:57:55;2.72;;;1.00;;
23800;SDS011;12081;48.614;10.226;2023-07-30T09:00:41;1.30;;;1.20;;
23800;SDS011;12081;48.614;10.226;2023-07-30T09:03:26;1.47;;;1.20;;
23800;SDS011;12081;48.614;10.226;2023-07-30T09:06:12;1.23;;;1.10;;
23800;SDS011;12081;48.614;10.226;2023-07-30T09:08:56;1.63;;;1.27;;
23800;SDS011;12081;48.614;10.226;2023-07-30T09:11:40;3.43;;;1.50;;
23800;SDS011;12081;48.614;10.226;2023-07-30T09:14:25;2.43;;;1.20;;
23800;SDS011;12081;48.614;10.226;2023-07-30T09:17:10;1.47;;;1.30;;
23800;SDS011;12081;48.614;10.226;2023-07-30T09:20:01;1.13;;;1.03;;
23800;SDS011;12081;48.614;10.226;2023-07-30T09:22:47;1.83;;;1.00;;
23800;SDS011;12081;48.614;10.226;2023-07-30T09:25:36;1.17;;;1.00;;
23800;SDS011;12081;48.614;10.226;2023-07-30T09:28:21;1.10;;;1.00;;
23800;SDS011;12081;48.614;10.226;2023-07-30T09:31:14;1.30;;;1.20;;
23800;SDS011;12081;48.614;10.226;2023-07-30T09:33:58;1.13;;;1.00;;
23800;SDS011;12081;48.614;10.226;2023-07-30T09:36:43;1.80;;;1.00;;
23800;SDS011;12081;48.614;10.226;2023-07-30T09:39:29;2.10;;;1.30;;
23800;SDS011;12081;48.614;10.226;2023-07-30T09:42:13;3.67;;;1.20;;
23800;SDS011;12081;48.614;10.226;2023-07-30T09:44:58;1.83;;;1.20;;
23800;SDS011;12081;48.614;10.226;2023-07-30T09:47:49;1.20;;;1.10;;
23800;SDS011;12081;48.614;10.226;2023-07-30T09:50:36;2.00;;;1.20;;
23800;SDS011;12081;48.614;10.226;2023-07-30T09:53:21;2.13;;;1.13;;
23800;SDS011;12081;48.614;10.226;2023-07-30T09:56:05;1.55;;;1.20;;
23800;SDS011;12081;48.614;10.226;2023-07-30T09:58:51;4.82;;;1.15;;
23800;SDS011;12081;48.614;10.226;2023-07-30T10:01:43;1.65;;;1.50;;
23800;SDS011;12081;48.614;10.226;2023-07-30T10:04:29;1.48;;;1.17;;
23800;SDS011;12081;48.614;10.226;2023-07-30T10:07:16;1.65;;;1.00;;
23800;SDS011;12081;48.614;10.226;2023-07-30T10:10:03;1.73;;;1.23;;
23800;SDS011;12081;48.614;10.226;2023-07-30T10:12:48;1.42;;;1.10;;
23800;SDS011;12081;48.614;10.226;2023-07-30T10:15:34;1.30;;;1.10;;
23800;SDS011;12081;48.614;10.226;2023-07-30T10:18:20;1.48;;;1.35;;
23800;SDS011;12081;48.614;10.226;2023-07-30T10:21:06;1.40;;;1.30;;
23800;SDS011;12081;48.614;10.226;2023-07-30T10:24:00;1.65;;;1.23;;
23800;SDS011;12081;48.614;10.226;2023-07-30T10:26:47;1.52;;;1.20;;
23800;SDS011;12081;48.614;10.226;2023-07-30T10:29:32;2.15;;;1.42;;
23800;SDS011;12081;48.614;10.226;2023-07-30T10:32:19;1.55;;;1.38;;
23800;SDS011;12081;48.614;10.226;2023-07-30T10:35:03;2.22;;;1.23;;
23800;SDS011;12081;48.614;10.226;2023-07-30T10:37:48;1.08;;;0.98;;
23800;SDS011;12081;48.614;10.226;2023-07-30T10:40:31;2.08;;;1.30;;
23800;SDS011;12081;48.614;10.226;2023-07-30T10:43:16;1.63;;;1.30;;
23800;SDS011;12081;48.614;10.226;2023-07-30T10:46:01;2.08;;;1.40;;
23800;SDS011;12081;48.614;10.226;2023-07-30T10:48:46;1.60;;;1.30;;
23800;SDS011;12081;48.614;10.226;2023-07-30T10:51:31;1.83;;;1.40;;
23800;SDS011;12081;48.614;10.226;2023-07-30T10:54:16;2.30;;;1.30;;
23800;SDS011;12081;48.614;10.226;2023-07-30T10:57:01;2.22;;;1.30;;
23800;SDS011;12081;48.614;10.226;2023-07-30T10:59:46;1.10;;;1.00;;
23800;SDS011;12081;48.614;10.226;2023-07-30T11:02:34;1.73;;;1.13;;
23800;SDS011;12081;48.614;10.226;2023-07-30T11:05:19;2.00;;;1.20;;
23800;SDS011;12081;48.614;10.226;2023-07-30T11:08:03;3.00;;;1.40;;
23800;SDS011;12081;48.614;10.226;2023-07-30T11:10:47;1.38;;;1.25;;
23800;SDS011;12081;48.614;10.226;2023-07-30T11:13:38;2.03;;;1.10;;
23800;SDS011;12081;48.614;10.226;2023-07-30T11:16:24;3.63;;;1.05;;
23800;SDS011;12081;48.614;10.226;2023-07-30T11:19:08;1.48;;;1.02;;
23800;SDS011;12081;48.614;10.226;2023-07-30T11:21:54;1.38;;;1.17;;
23800;SDS011;12081;48.614;10.226;2023-07-30T11:24:41;1.58;;;1.00;;
23800;SDS011;12081;48.614;10.226;2023-07-30T11:27:27;1.70;;;1.00;;
23800;SDS011;12081;48.614;10.226;2023-07-30T11:30:12;1.50;;;1.30;;
23800;SDS011;12081;48.614;10.226;2023-07-30T11:32:56;3.53;;;1.35;;
23800;SDS011;12081;48.614;10.226;2023-07-30T11:35:40;4.22;;;1.30;;
23800;SDS011;12081;48.614;10.226;2023-07-30T11:38:24;2.92;;;1.67;;
23800;SDS011;12081;48.614;10.226;2023-07-30T11:41:09;1.60;;;1.35;;
23800;SDS011;12081;48.614;10.226;2023-07-30T11:43:55;1.35;;;1.23;;
23800;SDS011;12081;48.614;10.226;2023-07-30T11:46:39;1.50;;;1.20;;
23800;SDS011;12081;48.614;10.226;2023-07-30T11:49:37;1.77;;;1.52;;
23800;SDS011;12081;48.614;10.226;2023-07-30T11:52:21;1.70;;;1.30;;
23800;SDS011;12081;48.614;10.226;2023-07-30T11:55:06;4.40;;;1.50;;
23800;SDS011;12081;48.614;10.226;2023-07-30T11:57:51;5.38;;;1.40;;
23800;SDS011;12081;48.614;10.226;2023-07-30T12:00:36;1.70;;;1.40;;
23800;SDS011;12081;48.614;10.226;2023-07-30T12:03:21;1.92;;;1.20;;
23800;SDS011;12081;48.614;10.226;2023-07-30T12:06:05;2.22;;;1.70;;
23800;SDS011;12081;48.614;10.226;2023-07-30T12:08:53;1.67;;;1.42;;
23800;SDS011;12081;48.614;10.226;2023-07-30T12:14:44;1.40;;;1.30;;
23800;SDS011;12081;48.614;10.226;2023-07-30T12:17:32;1.77;;;1.48;;
23800;SDS011;12081;48.614;10.226;2023-07-30T12:20:16;1.60;;;1.45;;
23800;SDS011;12081;48.614;10.226;2023-07-30T12:23:00;1.48;;;1.27;;
23800;SDS011;12081;48.614;10.226;2023-07-30T12:25:45;1.70;;;1.50;;
23800;SDS011;12081;48.614;10.226;2023-07-30T12:28:31;1.75;;;1.40;;
23800;SDS011;12081;48.614;10.226;2023-07-30T12:31:17;5.68;;;1.40;;
23800;SDS011;12081;48.614;10.226;2023-07-30T12:34:01;3.15;;;1.20;;
23800;SDS011;12081;48.614;10.226;2023-07-30T12:36:46;2.97;;;1.40;;
23800;SDS011;12081;48.614;10.226;2023-07-30T12:39:30;1.38;;;1.27;;
23800;SDS011;12081;48.614;10.226;2023-07-30T12:42:14;2.03;;;1.60;;
23800;SDS011;12081;48.614;10.226;2023-07-30T12:44:58;1.77;;;1.65;;
23800;SDS011;12081;48.614;10.226;2023-07-30T12:47:42;2.60;;;1.45;;
23800;SDS011;12081;48.614;10.226;2023-07-30T12:50:30;2.05;;;1.40;;
23800;SDS011;12081;48.614;10.226;2023-07-30T12:53:14;2.95;;;1.52;;
23800;SDS011;12081;48.614;10.226;2023-07-30T12:55:58;5.80;;;1.80;;
23800;SDS011;12081;48.614;10.226;2023-07-30T12:58:42;3.90;;;1.77;;
23800;SDS011;12081;48.614;10.226;2023-07-30T13:01:26;1.50;;;1.38;;
23800;SDS011;12081;48.614;10.226;2023-07-30T13:04:11;2.72;;;1.70;;
23800;SDS011;12081;48.614;10.226;2023-07-30T13:06:55;2.47;;;1.73;;
23800;SDS011;12081;48.614;10.226;2023-07-30T13:09:39;1.92;;;1.60;;
23800;SDS011;12081;48.614;10.226;2023-07-30T13:12:23;3.10;;;1.88;;
23800;SDS011;12081;48.614;10.226;2023-07-30T13:15:07;3.15;;;1.80;;
23800;SDS011;12081;48.614;10.226;2023-07-30T13:17:52;3.45;;;1.70;;
23800;SDS011;12081;48.614;10.226;2023-07-30T13:20:36;4.07;;;2.22;;
23800;SDS011;12081;48.614;10.226;2023-07-30T13:23:20;2.15;;;1.65;;
23800;SDS011;12081;48.614;10.226;2023-07-30T13:26:04;2.50;;;1.90;;
23800;SDS011;12081;48.614;10.226;2023-07-30T13:28:48;1.63;;;1.52;;
23800;SDS011;12081;48.614;10.226;2023-07-30T13:31:33;3.60;;;1.73;;
23800;SDS011;12081;48.614;10.226;2023-07-30T13:34:17;2.80;;;1.77;;
23800;SDS011;12081;48.614;10.226;2023-07-30T13:37:01;3.67;;;1.58;;
23800;SDS011;12081;48.614;10.226;2023-07-30T13:39:45;2.17;;;1.90;;
23800;SDS011;12081;48.614;10.226;2023-07-30T13:42:29;2.85;;;1.73;;
23800;SDS011;12081;48.614;10.226;2023-07-30T13:45:14;3.25;;;1.60;;
23800;SDS011;12081;48.614;10.226;2023-07-30T13:47:58;1.75;;;1.65;;
23800;SDS011;12081;48.614;10.226;2023-07-30T13:50:42;2.72;;;1.63;;
23800;SDS011;12081;48.614;10.226;2023-07-30T13:53:26;2.17;;;1.80;;
23800;SDS011;12081;48.614;10.226;2023-07-30T13:56:10;4.40;;;1.90;;
23800;SDS011;12081;48.614;10.226;2023-07-30T13:58:54;2.80;;;1.70;;
23800;SDS011;12081;48.614;10.226;2023-07-30T14:01:38;2.38;;;2.00;;
23800;SDS011;12081;48.614;10.226;2023-07-30T14:04:22;3.17;;;2.13;;
23800;SDS011;12081;48.614;10.226;2023-07-30T14:07:06;2.90;;;1.95;;
23800;SDS011;12081;48.614;10.226;2023-07-30T14:09:50;5.22;;;1.80;;
23800;SDS011;12081;48.614;10.226;2023-07-30T14:12:35;1.88;;;1.70;;
23800;SDS011;12081;48.614;10.226;2023-07-30T14:15:19;2.65;;;1.77;;
23800;SDS011;12081;48.614;10.226;2023-07-30T14:18:03;3.20;;;1.70;;
23800;SDS011;12081;48.614;10.226;2023-07-30T14:20:49;1.88;;;1.70;;
23800;SDS011;12081;48.614;10.226;2023-07-30T14:23:33;3.20;;;1.73;;
23800;SDS011;12081;48.614;10.226;2023-07-30T14:26:17;2.00;;;1.73;;
23800;SDS011;12081;48.614;10.226;2023-07-30T14:29:02;3.42;;;1.90;;
23800;SDS011;12081;48.614;10.226;2023-07-30T14:31:46;2.35;;;1.73;;
23800;SDS011;12081;48.614;10.226;2023-07-30T14:34:30;4.53;;;2.10;;
23800;SDS011;12081;48.614;10.226;2023-07-30T14:37:14;2.38;;;1.85;;
23800;SDS011;12081;48.614;10.226;2023-07-30T14:39:58;1.98;;;1.88;;
23800;SDS011;12081;48.614;10.226;2023-07-30T14:42:42;2.88;;;1.77;;
23800;SDS011;12081;48.614;10.226;2023-07-30T14:45:26;5.65;;;1.65;;
23800;SDS011;12081;48.614;10.226;2023-07-30T14:48:10;2.58;;;1.67;;
23800;SDS011;12081;48.614;10.226;2023-07-30T14:50:54;2.30;;;1.50;;
23800;SDS011;12081;48.614;10.226;2023-07-30T14:53:38;4.45;;;1.90;;
23800;SDS011;12081;48.614;10.226;2023-07-30T14:56:22;3.15;;;1.90;;
23800;SDS011;12081;48.614;10.226;2023-07-30T14:59:06;2.47;;;1.92;;
23800;SDS011;12081;48.614;10.226;2023-07-30T15:01:51;4.60;;;2.10;;
23800;SDS011;12081;48.614;10.226;2023-07-30T15:04:35;2.95;;;2.22;;
23800;SDS011;12081;48.614;10.226;2023-07-30T15:07:19;1.83;;;1.52;;
23800;SDS011;12081;48.614;10.226;2023-07-30T15:10:03;1.70;;;1.50;;
23800;SDS011;12081;48.614;10.226;2023-07-30T15:12:48;2.65;;;1.95;;
23800;SDS011;12081;48.614;10.226;2023-07-30T15:15:32;2.10;;;1.60;;
23800;SDS011;12081;48.614;10.226;2023-07-30T15:18:16;2.45;;;1.90;;
23800;SDS011;12081;48.614;10.226;2023-07-30T15:21:00;2.50;;;1.52;;
23800;SDS011;12081;48.614;10.226;2023-07-30T15:23:45;1.73;;;1.42;;
23800;SDS011;12081;48.614;10.226;2023-07-30T15:26:29;4.00;;;1.90;;
23800;SDS011;12081;48.614;10.226;2023-07-30T15:29:13;2.40;;;1.67;;
23800;SDS011;12081;48.614;10.226;2023-07-30T15:31:58;2.13;;;1.65;;
23800;SDS011;12081;48.614;10.226;2023-07-30T15:34:44;3.65;;;1.60;;
23800;SDS011;12081;48.614;10.226;2023-07-30T15:37:29;2.65;;;1.60;;
23800;SDS011;12081;48.614;10.226;2023-07-30T15:40:13;2.20;;;1.58;;
23800;SDS011;12081;48.614;10.226;2023-07-30T15:42:57;3.63;;;1.80;;
23800;SDS011;12081;48.614;10.226;2023-07-30T15:45:41;3.80;;;2.05;;
23800;SDS011;12081;48.614;10.226;2023-07-30T15:48:29;3.88;;;1.70;;
23800;SDS011;12081;48.614;10.226;2023-07-30T15:51:13;4.38;;;1.75;;
23800;SDS011;12081;48.614;10.226;2023-07-30T15:53:57;4.35;;;1.60;;
23800;SDS011;12081;48.614;10.226;2023-07-30T15:56:41;3.15;;;1.77;;
23800;SDS011;12081;48.614;10.226;2023-07-30T15:59:25;3.45;;;1.80;;
23800;SDS011;12081;48.614;10.226;2023-07-30T16:02:09;3.85;;;1.75;;
23800;SDS011;12081;48.614;10.226;2023-07-30T16:04:53;4.00;;;1.50;;
23800;SDS011;12081;48.614;10.226;2023-07-30T16:07:37;3.50;;;1.85;;
23800;SDS011;12081;48.614;10.226;2023-07-30T16:10:21;2.97;;;1.90;;
23800;SDS011;12081;48.614;10.226;2023-07-30T16:13:05;1.60;;;1.50;;
23800;SDS011;12081;48.614;10.226;2023-07-30T16:15:49;3.10;;;1.40;;
23800;SDS011;12081;48.614;10.226;2023-07-30T16:18:33;2.67;;;1.48;;
23800;SDS011;12081;48.614;10.226;2023-07-30T16:21:18;2.83;;;1.50;;
23800;SDS011;12081;48.614;10.226;2023-07-30T16:24:02;3.30;;;1.67;;
23800;SDS011;12081;48.614;10.226;2023-07-30T16:26:47;3.17;;;1.45;;
23800;SDS011;12081;48.614;10.226;2023-07-30T16:29:31;2.60;;;1.50;;
23800;SDS011;12081;48.614;10.226;2023-07-30T16:32:16;4.57;;;1.80;;
23800;SDS011;12081;48.614;10.226;2023-07-30T16:35:00;3.95;;;1.67;;
23800;SDS011;12081;48.614;10.226;2023-07-30T16:37:44;3.78;;;1.60;;
23800;SDS011;12081;48.614;10.226;2023-07-30T16:40:28;2.58;;;1.55;;
23800;SDS011;12081;48.614;10.226;2023-07-30T16:43:13;2.47;;;1.50;;
23800;SDS011;12081;48.614;10.226;2023-07-30T16:45:58;2.35;;;1.38;;
23800;SDS011;12081;48.614;10.226;2023-07-30T16:48:43;1.83;;;1.30;;
23800;SDS011;12081;48.614;10.226;2023-07-30T16:51:27;2.35;;;1.30;;
23800;SDS011;12081;48.614;10.226;2023-07-30T16:54:11;2.47;;;1.20;;
23800;SDS011;12081;48.614;10.226;2023-07-30T16:56:57;3.72;;;1.67;;
23800;SDS011;12081;48.614;10.226;2023-07-30T16:59:41;2.67;;;1.67;;
23800;SDS011;12081;48.614;10.226;2023-07-30T17:02:25;2.15;;;1.38;;
23800;SDS011;12081;48.614;10.226;2023-07-30T17:05:10;3.35;;;1.40;;
23800;SDS011;12081;48.614;10.226;2023-07-30T17:07:54;3.10;;;1.50;;
23800;SDS011;12081;48.614;10.226;2023-07-30T17:10:38;3.25;;;1.40;;
23800;SDS011;12081;48.614;10.226;2023-07-30T17:13:22;2.65;;;1.20;;
23800;SDS011;12081;48.614;10.226;2023-07-30T17:16:07;2.50;;;1.40;;
23800;SDS011;12081;48.614;10.226;2023-07-30T17:18:52;3.38;;;1.50;;
23800;SDS011;12081;48.614;10.226;2023-07-30T17:21:37;4.53;;;1.27;;
23800;SDS011;12081;48.614;10.226;2023-07-30T17:24:21;2.65;;;1.10;;
23800;SDS011;12081;48.614;10.226;2023-07-30T17:27:05;2.97;;;1.27;;
23800;SDS011;12081;48.614;10.226;2023-07-30T17:29:50;3.57;;;1.60;;
23800;SDS011;12081;48.614;10.226;2023-07-30T17:32:39;4.33;;;1.20;;
23800;SDS011;12081;48.614;10.226;2023-07-30T17:35:23;2.43;;;1.70;;
23800;SDS011;12081;48.614;10.226;2023-07-30T17:38:07;4.03;;;1.47;;
23800;SDS011;12081;48.614;10.226;2023-07-30T17:40:52;3.23;;;1.20;;
23800;SDS011;12081;48.614;10.226;2023-07-30T17:43:36;2.20;;;1.50;;
23800;SDS011;12081;48.614;10.226;2023-07-30T17:46:22;3.73;;;1.30;;
23800;SDS011;12081;48.614;10.226;2023-07-30T17:49:06;2.00;;;1.20;;
23800;SDS011;12081;48.614;10.226;2023-07-30T17:51:50;3.57;;;1.40;;
23800;SDS011;12081;48.614;10.226;2023-07-30T17:54:35;3.53;;;1.30;;
23800;SDS011;12081;48.614;10.226;2023-07-30T17:57:19;2.70;;;1.37;;
23800;SDS011;12081;48.614;10.226;2023-07-30T18:00:04;3.47;;;1.30;;
23800;SDS011;12081;48.614;10.226;2023-07-30T18:02:49;3.53;;;1.10;;
23800;SDS011;12081;48.614;10.226;2023-07-30T18:05:34;5.47;;;1.60;;
23800;SDS011;12081;48.614;10.226;2023-07-30T18:08:18;4.20;;;1.30;;
23800;SDS011;12081;48.614;10.226;2023-07-30T18:11:03;2.97;;;1.30;;
23800;SDS011;12081;48.614;10.226;2023-07-30T18:13:47;4.73;;;1.37;;
23800;SDS011;12081;48.614;10.226;2023-07-30T18:16:31;4.23;;;1.37;;
23800;SDS011;12081;48.614;10.226;2023-07-30T18:19:16;4.17;;;1.50;;
23800;SDS011;12081;48.614;10.226;2023-07-30T18:22:00;3.73;;;1.40;;
23800;SDS011;12081;48.614;10.226;2023-07-30T18:24:44;3.00;;;1.27;;
23800;SDS011;12081;48.614;10.226;2023-07-30T18:27:28;5.67;;;1.40;;
23800;SDS011;12081;48.614;10.226;2023-07-30T18:30:12;2.90;;;1.17;;
23800;SDS011;12081;48.614;10.226;2023-07-30T18:32:56;3.93;;;1.20;;
23800;SDS011;12081;48.614;10.226;2023-07-30T18:35:40;4.23;;;1.20;;
23800;SDS011;12081;48.614;10.226;2023-07-30T18:38:25;2.70;;;1.10;;
23800;SDS011;12081;48.614;10.226;2023-07-30T18:41:09;5.33;;;1.10;;
23800;SDS011;12081;48.614;10.226;2023-07-30T18:43:54;3.97;;;1.20;;
23800;SDS011;12081;48.614;10.226;2023-07-30T18:46:38;5.43;;;1.20;;
23800;SDS011;12081;48.614;10.226;2023-07-30T18:49:22;3.97;;;1.30;;
23800;SDS011;12081;48.614;10.226;2023-07-30T18:52:07;2.33;;;1.13;;
23800;SDS011;12081;48.614;10.226;2023-07-30T18:54:51;3.93;;;1.40;;
23800;SDS011;12081;48.614;10.226;2023-07-30T18:57:35;6.17;;;1.40;;
23800;SDS011;12081;48.614;10.226;2023-07-30T19:00:19;1.33;;;0.93;;
23800;SDS011;12081;48.614;10.226;2023-07-30T19:03:03;5.37;;;1.20;;
23800;SDS011;12081;48.614;10.226;2023-07-30T19:05:48;2.87;;;1.27;;
23800;SDS011;12081;48.614;10.226;2023-07-30T19:08:33;3.23;;;1.20;;
23800;SDS011;12081;48.614;10.226;2023-07-30T19:11:17;4.13;;;1.37;;
23800;SDS011;12081;48.614;10.226;2023-07-30T19:14:01;3.37;;;1.20;;
23800;SDS011;12081;48.614;10.226;2023-07-30T19:16:45;2.80;;;1.30;;
23800;SDS011;12081;48.614;10.226;2023-07-30T19:19:29;3.37;;;1.10;;
23800;SDS011;12081;48.614;10.226;2023-07-30T19:22:13;1.87;;;0.90;;
23800;SDS011;12081;48.614;10.226;2023-07-30T19:24:59;2.07;;;1.00;;
23800;SDS011;12081;48.614;10.226;2023-07-30T19:27:43;5.57;;;1.50;;
23800;SDS011;12081;48.614;10.226;2023-07-30T19:30:27;3.90;;;1.20;;
23800;SDS011;12081;48.614;10.226;2023-07-30T19:33:11;2.60;;;1.20;;
23800;SDS011;12081;48.614;10.226;2023-07-30T19:35:55;3.27;;;1.43;;
23800;SDS011;12081;48.614;10.226;2023-07-30T19:38:39;3.40;;;1.30;;
23800;SDS011;12081;48.614;10.226;2023-07-30T19:41:24;3.77;;;1.30;;
23800;SDS011;12081;48.614;10.226;2023-07-30T19:44:08;2.20;;;1.13;;
23800;SDS011;12081;48.614;10.226;2023-07-30T19:46:52;3.30;;;1.33;;
23800;SDS011;12081;48.614;10.226;2023-07-30T19:49:36;3.70;;;1.20;;
23800;SDS011;12081;48.614;10.226;2023-07-30T19:52:21;2.53;;;1.23;;
23800;SDS011;12081;48.614;10.226;2023-07-30T19:55:06;4.30;;;1.40;;
23800;SDS011;12081;48.614;10.226;2023-07-30T19:57:50;6.43;;;1.30;;
23800;SDS011;12081;48.614;10.226;2023-07-30T20:00:35;2.47;;;1.20;;
23800;SDS011;12081;48.614;10.226;2023-07-30T20:03:19;4.70;;;1.40;;
23800;SDS011;12081;48.614;10.226;2023-07-30T20:06:03;3.07;;;1.40;;
23800;SDS011;12081;48.614;10.226;2023-07-30T20:08:49;3.47;;;1.93;;
23800;SDS011;12081;48.614;10.226;2023-07-30T20:11:33;4.07;;;1.63;;
23800;SDS011;12081;48.614;10.226;2023-07-30T20:14:17;4.63;;;1.30;;
23800;SDS011;12081;48.614;10.226;2023-07-30T20:17:01;6.47;;;1.43;;
23800;SDS011;12081;48.614;10.226;2023-07-30T20:19:45;4.80;;;1.40;;
23800;SDS011;12081;48.614;10.226;2023-07-30T20:22:30;2.13;;;1.10;;
23800;SDS011;12081;48.614;10.226;2023-07-30T20:25:14;3.53;;;1.20;;
23800;SDS011;12081;48.614;10.226;2023-07-30T20:27:58;2.90;;;1.20;;
23800;SDS011;12081;48.614;10.226;2023-07-30T20:30:43;5.47;;;1.43;;
23800;SDS011;12081;48.614;10.226;2023-07-30T20:33:27;4.07;;;1.50;;
23800;SDS011;12081;48.614;10.226;2023-07-30T20:36:11;2.17;;;1.00;;
23800;SDS011;12081;48.614;10.226;2023-07-30T20:38:55;5.70;;;1.40;;
23800;SDS011;12081;48.614;10.226;2023-07-30T20:41:39;4.43;;;1.40;;
23800;SDS011;12081;48.614;10.226;2023-07-30T20:44:23;4.33;;;1.13;;
23800;SDS011;12081;48.614;10.226;2023-07-30T20:47:07;2.47;;;1.40;;
23800;SDS011;12081;48.614;10.226;2023-07-30T20:49:51;4.10;;;1.60;;
23800;SDS011;12081;48.614;10.226;2023-07-30T20:52:35;2.57;;;1.20;;
23800;SDS011;12081;48.614;10.226;2023-07-30T20:55:20;3.53;;;1.20;;
23800;SDS011;12081;48.614;10.226;2023-07-30T20:58:05;4.50;;;1.30;;
23800;SDS011;12081;48.614;10.226;2023-07-30T21:00:49;3.83;;;1.60;;
23800;SDS011;12081;48.614;10.226;2023-07-30T21:03:33;3.33;;;1.33;;
23800;SDS011;12081;48.614;10.226;2023-07-30T21:06:17;3.40;;;1.40;;
23800;SDS011;12081;48.614;10.226;2023-07-30T21:09:01;4.60;;;1.47;;
23800;SDS011;12081;48.614;10.226;2023-07-30T21:11:46;3.13;;;1.47;;
23800;SDS011;12081;48.614;10.226;2023-07-30T21:14:30;3.57;;;1.50;;
23800;SDS011;12081;48.614;10.226;2023-07-30T21:17:14;4.43;;;1.20;;
23800;SDS011;12081;48.614;10.226;2023-07-30T21:19:59;2.93;;;1.20;;
23800;SDS011;12081;48.614;10.226;2023-07-30T21:22:45;2.60;;;1.20;;
23800;SDS011;12081;48.614;10.226;2023-07-30T21:25:29;3.63;;;1.47;;
23800;SDS011;12081;48.614;10.226;2023-07-30T21:28:15;3.63;;;1.33;;
23800;SDS011;12081;48.614;10.226;2023-07-30T21:31:00;4.33;;;1.30;;
